Decoded Metar for LFBP (PAU in FRANCE) (IATA:PUF) | Meteo·Mobile Aviation Weather
aviador You're here:

LFBP Decoded Metar

PAU in FRANCE
Report Time2018-08-22 04:00:00
UTC Time2018-08-22 04:30:26
Flight Rules lifr LIFR
WindVRB at 02 kt
Visibility9999 m
Phenomena:Mist
Clouds:N/A
Ceiling200 ft
Temp17°C (ISA +3)
Dew Point17°C (100% RH)
QNH1016 hPa
Density Alt1,142 ft
Elevation607 ft
Report Wrong Elevation
Raw Report
LFBP 220400Z AUTO VRB02KT CAVOK 17/17 Q1016 TEMPO 4000 BR
BKN002=

Extra information for LFBP:More info

Metar Taf Metar & Taf Last 4 Metars F.Rules Stats Wind Profile Meteogram Temp Stats Airport Information Weather charts Add Link Nearby VenuesMetar ALERT Operation Metar Decoded Social comments